Sardar Vafaei

Scout - Sepahan
21 Feb 2028
Monday
Process

Personality

Adaptability (8) Ambition (12) Controversy (3) Loyalty (5) Pressure (1) Professionalism (4) Sportsmanship (9) Temperament (20)

Profile

Coaching Style Democratic
License National B
Determination 8
Man Management 11
Motivating 10
Discipline 9
Job Satisfaction
100%
Fatigue
0%
Role Scout
Wage 30.1K p/w
Contract 14.03.2028

Performance

Behaviour Good
Training Effectiveness
39%
Player Development
25%
Injury Prevention
50%
Tactical Implementation
35%

Recent Events

Contract negotiation started now
Attended a recruitment meeting now
Contract negotiation started now
Contract negotiation started now
Contract negotiation started now
Contract negotiation started now
Contract negotiation started 7d ago
Contract negotiation started 7d ago

Currently Monitoring

91
Player Club Status Ability Confidence Watched Last Observed Latest Vote
Mohammad Amin Moradi Foolad Lost 96 / 105 58% 1 06.01.2028 Approve
Biola Sabitu Remo Stars Active 111 / 97 40% 2 30.12.2027 -
Facundo Lemos Artigas Active 93 / 95 40% 1 30.12.2027 -
Franco Rivasseau Patronato Active 112 / 119 40% 3 28.12.2027 -
Joaquín Enrico San Telmo Active 116 / 121 40% 3 28.12.2027 -
Moisés Gallo Zulia Active 94 / 94 40% 1 25.12.2027 -
Ifeanyi Emmanuel Niger Tornadoes Active 120 / 100 40% 2 20.12.2027 -
Agustín Buffa Wanderers Active 93 / 100 40% 1 16.12.2027 -
Sol Brynn Krasnodar Active 138 / 132 40% 1 16.12.2027 -
Leopold Wahlstedt Rosenborg Active 120 / 126 40% 1 13.12.2027 -
Joaquín Bigo Tristán Suárez Active 123 / 117 40% 2 11.12.2027 -
Facundo Vila Estudiantes Active 103 / 119 40% 1 11.12.2027 -
Emiliano González Almagro Active 132 / 130 40% 1 08.12.2027 -
Francisco Salerno Defensores Unidos Active 127 / 110 40% 1 07.12.2027 -
Nahuel Galardi Maipú Active 114 / 125 40% 1 07.12.2027 -
Jerónimo Pourtau Talleres Active 131 / 114 40% 1 01.12.2027 -
Sebastián Jaume Albion Active 96 / 109 40% 3 29.11.2027 -
Emmanuel Gómez Riga Alvarado Active 103 / 104 40% 2 28.11.2027 -
Pontus Dahlberg Lillestrom Active 121 / 112 40% 2 26.11.2027 -
Ali Ishaku Abia Warriors Active 87 / 115 40% 1 23.11.2027 -
Mustapha Lawal Shooting Stars Active 90 / 109 40% 1 09.11.2027 -
Luis Ingolotti Atlético Tucumán Active 125 / 116 40% 1 09.11.2027 -
Joel McGregor Swindon Town Active 83 / 91 40% 3 28.05.2027 -
Ernie Weaver AFC Wimbledon Active 107 / 121 40% 3 28.05.2027 -
Kwadwo Baah Watford Active 123 / 127 40% 1 28.05.2027 -
Saman Rezaeian Gostaresh Foulad Active 107 / 117 40% 1 25.05.2027 -
Leandro Martins Benfica Active 100 / 100 40% 2 24.05.2027 -
Isaiah Jones Luton Town Active 126 / 126 40% 1 21.05.2027 -
Tommy Conway Middlesbrough Active 127 / 130 40% 1 21.05.2027 -
Percy Jali Free State Stars Active 82 / 91 40% 2 19.05.2027 -
Welington Southampton Active 134 / 121 40% 3 19.05.2027 -
Christ Inao Oulaï Fiorentina Active 142 / 139 40% 2 19.05.2027 -
Kazunari Kita Real Sociedad Active 102 / 111 40% 3 15.05.2027 -
Taras Mykhavko Dynamo Kyiv Active 121 / 136 40% 1 15.05.2027 Needs More Info
Tom Fellows Southampton Active 140 / 138 40% 2 13.05.2027 -
Kristoffer Lund Birmingham Active 133 / 121 40% 1 13.05.2027 -
Daniel Costa Sporting CP Active 101 / 96 40% 1 12.05.2027 -
Davide Bartesaghi AC Milan Active 126 / 139 40% 1 10.05.2027 -
Dylan Lawlor Cardiff City Active 117 / 113 40% 3 08.05.2027 -
Ehsan Gholizadeh Rah Ahan Active 101 / 104 40% 2 07.05.2027 -
Fuzy Taylor Medeama Active 81 / 83 40% 1 07.05.2027 -
Ali Ahmed Norwich City Active 118 / 122 40% 1 06.05.2027 -
Zeidane Inoussa Swansea City Active 132 / 121 40% 1 06.05.2027 -
Gonçalo Oliveira Benfica Active 102 / 111 40% 1 01.05.2027 -
Johan Manzambi Newcastle United Active 139 / 145 40% 1 30.04.2027 -
Mduduzi Shabalala Kaizer Chiefs Active 107 / 113 40% 3 29.04.2027 -
Cian Ashford Cardiff City Active 122 / 113 40% 2 29.04.2027 -
Juan Giménez Celta Active 110 / 122 40% 2 29.04.2027 -
David Ozoh Derby County Active 121 / 129 40% 3 28.04.2027 -
Martim Cunha Porto Active 105 / 100 40% 1 26.04.2027 -
Daniel Kyerewaa Reading Active 106 / 119 40% 2 23.04.2027 -
Kasey McAteer Ipswich Town Active 129 / 122 40% 2 19.04.2027 -
Joe Gelhardt Hull City Active 123 / 141 40% 1 19.04.2027 -
Caleb Yirenkyi Coventry City Active 125 / 135 40% 2 17.04.2027 -
Christos Mouzakitis Hull City Active 140 / 144 40% 2 17.04.2027 Needs More Info
Finn Azaz Southampton Active 140 / 129 40% 1 15.04.2027 -
Vasilije Novičić IMT Active 81 / 96 40% 1 15.04.2027 -
Edwin Asamoah Berekum Chelsea Active 89 / 78 40% 1 14.04.2027 -
Morgan Whittaker Middlesbrough Active 142 / 129 40% 1 12.04.2027 -
Mathias Jørgensen Blackburn Rovers Active 108 / 123 40% 1 11.04.2027 -
Derensili Sanches Fernandes Huddersfield Town Active 122 / 117 40% 2 07.04.2027 -
Jack Rudoni Coventry City Active 124 / 137 40% 1 07.04.2027 -
Valentin Atangana Al-Ahli Active 136 / 126 40% 1 06.04.2027 -
Saeid Taremi Gostaresh Foulad Active 93 / 87 40% 1 06.04.2027 -
Oston O'runov Persepolis Active 130 / 112 40% 1 27.03.2027 -
Omid Gholizadeh Siah Jamegan Lost 134 / 121 40% 2 26.03.2027 Needs More Info
Majid Beiranvand Rah Ahan Active 110 / 116 40% 2 22.03.2027 -
Jofre Torrents Ajax Active 112 / 118 40% 1 17.03.2027 -
Williams Manyama SuperSport United Active 100 / 127 40% 1 16.03.2027 -
David Atiemo Liberty Professionals Active 99 / 98 40% 1 13.03.2027 -
Cathal Heffernan Harrogate Town Active 83 / 85 40% 1 13.03.2027 -
Daniel Kelly Oxford United Active 120 / 117 40% 1 12.03.2027 -
Aidan Morris Middlesbrough Active 130 / 131 40% 1 11.03.2027 -
Darryl Bakola Padova Active 102 / 124 40% 1 08.03.2027 -
Oswin Appollis Orlando Pirates Active 140 / 113 40% 2 02.03.2027 -
Hakim Sulemana Medeama Active 90 / 102 40% 1 28.02.2027 -
Alireza Koushki Esteghlal Active 118 / 115 40% 1 27.02.2027 -
Mandla Erasmus SuperSport United Active 106 / 129 40% 2 25.02.2027 -
Thalente Mbatha Orlando Pirates Active 124 / 129 40% 1 25.02.2027 -
Mohammad Khodabandelou Persepolis Active 122 / 110 40% 1 22.02.2027 -
Reda Khadra Qarabag Active 117 / 137 40% 1 18.02.2027 -
Silvio Gentile Zob Ahan Active 114 / 116 40% 1 18.02.2027 -
Sebastián Arce Rodina Active 110 / 118 40% 1 15.02.2027 -
Romano Schmid Frosinone Active 135 / 148 40% 1 12.02.2027 -
Mattéo Tramoni Pisa Active 130 / 138 40% 1 12.02.2027 -
Christian Krasnodar Active 152 / 134 40% 1 11.02.2027 -
Alessio Zerbin Frosinone Active 124 / 127 40% 1 10.02.2027 -
Kaveh Karimi Siah Jamegan Active 111 / 99 40% 1 10.02.2027 -
Ronaldo Maarman University of Pretoria Active 118 / 95 40% 1 01.02.2027 -
Gonzalo Escudero Racing Club Active 88 / 102 40% 1 24.08.2026 -
Karim Adeyemi Barcelona Active 144 / 147 40% 1 01.08.2026 -